Time;durP1;ratioP1;P1;durP2;ratioP2;P2;SDS_P1;SDS_P2;PMS_P1;PMS_P2;Temp;Humidity;BMP_temperature;BMP_pressure;BME280_temperature;BME280_humidity;BME280_pressure;Samples;Min_cycle;Max_cycle;Signal;HPM_P1;HPM_P2
2022/12/06 00:01:47;;;;;;;14.30;8.40;;;7.50;99.90;;;;;;5073117;28;20490;-73
2022/12/06 00:04:15;;;;;;;13.95;8.70;;;7.60;99.90;;;;;;5072676;28;20076;-74
2022/12/06 00:06:52;;;;;;;13.13;8.73;;;7.50;99.90;;;;;;5072869;28;20052;-75
2022/12/06 00:09:23;;;;;;;15.05;8.32;;;7.50;99.90;;;;;;5072555;28;20028;-74
2022/12/06 00:11:50;;;;;;;15.30;10.23;;;7.50;99.90;;;;;;5072897;28;20039;-76
2022/12/06 00:14:16;;;;;;;16.92;8.85;;;7.50;99.90;;;;;;5072817;28;20116;-75
2022/12/06 00:16:42;;;;;;;13.73;9.55;;;7.50;99.90;;;;;;5072644;28;20094;-75
2022/12/06 00:19:11;;;;;;;14.02;9.95;;;7.50;99.90;;;;;;5072607;28;20473;-74
2022/12/06 00:21:37;;;;;;;13.77;9.35;;;7.60;99.90;;;;;;5072545;28;20351;-74
2022/12/06 00:24:10;;;;;;;16.27;9.27;;;7.50;99.90;;;;;;5072346;28;20033;-75
2022/12/06 00:26:37;;;;;;;14.75;9.57;;;7.50;99.90;;;;;;5072784;28;20017;-75
2022/12/06 00:29:04;;;;;;;16.70;9.85;;;7.40;99.90;;;;;;5070735;28;20024;-74
2022/12/06 00:31:31;;;;;;;13.13;9.18;;;7.60;99.90;;;;;;5073016;28;20032;-74
2022/12/06 00:33:57;;;;;;;21.10;10.10;;;7.50;99.90;;;;;;5072376;28;20477;-75
2022/12/06 00:36:28;;;;;;;18.83;9.98;;;7.50;99.90;;;;;;5072525;28;20568;-75
2022/12/06 00:38:54;;;;;;;19.30;10.03;;;7.40;99.90;;;;;;5072072;28;20121;-74
2022/12/06 00:41:22;;;;;;;13.43;9.40;;;7.30;99.90;;;;;;5072681;28;20203;-74
2022/12/06 00:43:49;;;;;;;14.63;8.43;;;7.40;99.90;;;;;;5070802;28;20021;-74
2022/12/06 00:46:18;;;;;;;12.88;8.45;;;7.30;99.90;;;;;;5075564;28;20503;-74
2022/12/06 00:48:45;;;;;;;14.38;8.43;;;7.40;99.90;;;;;;5075351;28;20044;-75
2022/12/06 00:51:12;;;;;;;14.13;9.27;;;7.40;99.90;;;;;;5076307;28;20028;-74
2022/12/06 00:53:38;;;;;;;13.77;9.13;;;7.50;99.90;;;;;;5076469;28;20028;-72
2022/12/06 00:56:04;;;;;;;15.55;9.13;;;7.70;99.90;;;;;;5076348;28;20039;-71
2022/12/06 00:58:30;;;;;;;12.90;9.55;;;7.60;99.90;;;;;;5075023;28;20100;-72
2022/12/06 01:01:07;;;;;;;14.20;8.32;;;7.80;99.90;;;;;;5076297;28;20544;-71
2022/12/06 01:03:33;;;;;;;18.80;9.13;;;7.50;99.90;;;;;;5074870;28;20424;-71
2022/12/06 01:06:04;;;;;;;19.50;9.45;;;7.50;99.90;;;;;;5076157;28;20021;-71
2022/12/06 01:08:29;;;;;;;13.63;8.43;;;7.60;99.90;;;;;;5075396;28;20488;-71
2022/12/06 01:10:55;;;;;;;16.23;9.23;;;7.50;99.90;;;;;;5076220;28;20031;-71
2022/12/06 01:13:21;;;;;;;20.52;8.90;;;7.60;99.90;;;;;;5076030;28;20040;-74
2022/12/06 01:15:47;;;;;;;15.65;8.30;;;7.60;99.90;;;;;;5075931;28;20105;-75
2022/12/06 01:18:13;;;;;;;14.68;8.07;;;7.50;99.90;;;;;;5075856;28;20032;-75
2022/12/06 01:20:38;;;;;;;20.48;9.07;;;7.70;99.90;;;;;;5076066;28;20033;-75
2022/12/06 01:23:04;;;;;;;14.52;7.78;;;7.70;99.90;;;;;;5075574;28;20548;-74
2022/12/06 01:25:31;;;;;;;18.05;9.13;;;7.60;99.90;;;;;;5074726;28;20028;-75
2022/12/06 01:27:58;;;;;;;14.27;8.55;;;7.70;99.90;;;;;;5075760;28;20042;-74
2022/12/06 01:30:24;;;;;;;11.55;8.25;;;7.70;99.90;;;;;;5075385;28;20020;-75
2022/12/06 01:32:50;;;;;;;20.60;8.95;;;7.70;99.90;;;;;;5074524;28;20437;-75
2022/12/06 01:35:16;;;;;;;12.13;8.63;;;7.70;99.90;;;;;;5060323;28;20028;-75
2022/12/06 01:37:41;;;;;;;14.35;8.70;;;7.70;99.90;;;;;;5075491;28;20035;-75
2022/12/06 01:40:08;;;;;;;13.05;7.97;;;7.60;99.90;;;;;;5074425;28;20500;-75
2022/12/06 01:42:34;;;;;;;12.43;7.78;;;7.70;99.90;;;;;;5085599;28;20027;-75
2022/12/06 01:45:00;;;;;;;14.65;9.45;;;7.80;99.90;;;;;;5075280;28;20024;-74
2022/12/06 01:47:36;;;;;;;15.93;8.18;;;7.90;99.90;;;;;;5074126;28;20024;-75
2022/12/06 01:50:10;;;;;;;15.45;8.13;;;7.70;99.90;;;;;;5075183;28;20075;-75
2022/12/06 01:53:05;;;;;;;15.75;8.43;;;7.70;99.90;;;;;;5075115;28;20469;-75
2022/12/06 01:55:35;;;;;;;15.88;8.27;;;7.70;99.90;;;;;;5073354;28;20029;-75
2022/12/06 01:58:08;;;;;;;11.02;8.30;;;7.60;99.90;;;;;;5075252;28;20032;-75
2022/12/06 02:00:34;;;;;;;12.00;7.90;;;7.70;99.90;;;;;;5074855;28;20074;-75
2022/12/06 02:03:01;;;;;;;15.23;8.35;;;7.70;99.90;;;;;;5075232;28;20024;-74
2022/12/06 02:05:29;;;;;;;16.00;8.40;;;7.70;99.90;;;;;;5074680;28;20036;-74
2022/12/06 02:07:58;;;;;;;17.95;8.63;;;7.80;99.90;;;;;;5075245;28;20056;-75
2022/12/06 02:10:24;;;;;;;19.83;9.45;;;7.80;99.90;;;;;;5074710;28;20103;-75
2022/12/06 02:12:55;;;;;;;12.65;8.63;;;7.70;99.90;;;;;;5075139;28;20031;-75
2022/12/06 02:15:28;;;;;;;18.20;9.57;;;7.50;99.90;;;;;;5074744;28;20036;-74
2022/12/06 02:18:17;;;;;;;13.38;9.38;;;7.40;99.90;;;;;;5073861;28;20086;-74
2022/12/06 02:21:04;;;;;;;20.48;9.60;;;7.30;99.90;;;;;;5073740;28;20039;-75
2022/12/06 02:24:05;;;;;;;13.88;7.70;;;7.50;99.90;;;;;;5073704;28;20464;-75
2022/12/06 02:26:46;;;;;;;17.88;8.70;;;7.40;99.90;;;;;;5061823;28;20028;-74
2022/12/06 02:29:42;;;;;;;24.73;9.15;;;7.40;99.90;;;;;;5074591;28;20047;-74
2022/12/06 02:32:14;;;;;;;15.30;8.73;;;7.30;99.90;;;;;;5074542;28;20059;-75
2022/12/06 02:35:00;;;;;;;14.55;7.97;;;7.40;99.90;;;;;;5074065;28;20027;-75
2022/12/06 02:37:33;;;;;;;13.65;8.38;;;7.50;99.90;;;;;;5023198;28;20041;-74
2022/12/06 02:40:14;;;;;;;17.70;8.27;;;7.60;99.90;;;;;;5073809;28;20056;-75
2022/12/06 02:42:54;;;;;;;23.08;9.10;;;7.70;99.90;;;;;;5074484;28;20036;-75
2022/12/06 02:45:36;;;;;;;16.95;8.02;;;7.70;99.90;;;;;;5061123;28;20032;-75
2022/12/06 02:48:03;;;;;;;;;;;7.60;99.90;;;;;;5074815;28;20078;-74
2022/12/06 02:50:38;;;;;;;24.27;8.77;;;7.50;99.90;;;;;;5074266;28;19908;-75
2022/12/06 02:53:07;;;;;;;16.48;8.07;;;7.50;99.90;;;;;;5074141;28;20116;-74
2022/12/06 02:55:34;;;;;;;19.83;8.73;;;7.50;99.90;;;;;;5073198;28;20021;-75
2022/12/06 02:58:00;;;;;;;20.90;7.82;;;7.50;99.90;;;;;;5074242;28;20408;-75
2022/12/06 03:00:39;;;;;;;17.95;9.25;;;7.40;99.90;;;;;;5073974;28;20107;-75
2022/12/06 03:03:35;;;;;;;15.82;9.20;;;7.30;99.90;;;;;;5073772;28;20424;-75
2022/12/06 03:06:00;;;;;;;22.00;9.30;;;7.20;99.90;;;;;;5063460;28;20525;-74
2022/12/06 03:08:41;;;;;;;20.90;9.45;;;7.20;99.90;;;;;;5073049;28;20097;-74
2022/12/06 03:11:08;;;;;;;26.30;9.07;;;7.30;99.90;;;;;;5073798;28;20024;-74
2022/12/06 03:13:45;;;;;;;27.52;8.88;;;7.30;99.90;;;;;;5072350;28;20032;-74
2022/12/06 03:16:25;;;;;;;23.02;9.45;;;7.40;99.90;;;;;;5073439;28;20020;-75
2022/12/06 03:19:09;;;;;;;23.35;9.13;;;7.50;99.90;;;;;;5073581;28;20037;-74
2022/12/06 03:21:56;;;;;;;19.10;8.60;;;7.40;99.90;;;;;;5073856;28;20115;-75
2022/12/06 03:24:24;;;;;;;15.60;8.90;;;7.30;99.90;;;;;;5073119;28;20078;-75
2022/12/06 03:26:51;;;;;;;19.67;8.00;;;7.30;99.90;;;;;;5073548;28;20033;-75
2022/12/06 03:29:23;;;;;;;20.40;8.52;;;7.10;99.90;;;;;;5073973;28;20028;-71
2022/12/06 03:31:51;;;;;;;15.48;7.60;;;7.10;99.90;;;;;;5073341;28;20514;-72
2022/12/06 03:34:31;;;;;;;18.45;8.35;;;7.10;99.90;;;;;;5073087;28;20451;-72
2022/12/06 03:36:58;;;;;;;17.25;8.23;;;7.30;99.90;;;;;;5073229;28;20032;-71
2022/12/06 03:39:34;;;;;;;17.83;7.63;;;7.30;99.90;;;;;;5073204;28;20032;-71
2022/12/06 03:42:01;;;;;;;21.88;9.00;;;7.40;99.90;;;;;;5073489;28;20116;-71
2022/12/06 03:44:28;;;;;;;18.83;8.35;;;7.20;99.90;;;;;;5073210;28;20031;-71
2022/12/06 03:47:01;;;;;;;17.27;7.90;;;7.30;99.90;;;;;;5072883;28;20094;-71
2022/12/06 03:49:34;;;;;;;20.60;8.48;;;7.30;99.90;;;;;;5073093;28;20036;-72
2022/12/06 03:52:00;;;;;;;20.70;8.93;;;7.50;99.90;;;;;;5072917;28;20473;-71
2022/12/06 03:54:26;;;;;;;18.40;7.63;;;7.50;99.90;;;;;;5073024;28;20492;-71
2022/12/06 03:56:52;;;;;;;19.15;8.30;;;7.50;99.90;;;;;;5073079;28;20020;-71
2022/12/06 03:59:17;;;;;;;17.98;8.65;;;7.40;99.90;;;;;;5072629;28;20369;-71
2022/12/06 04:01:43;;;;;;;20.27;9.50;;;7.50;99.90;;;;;;5071585;28;20542;-71
2022/12/06 04:04:09;;;;;;;15.73;8.15;;;7.30;99.90;;;;;;5073037;28;20024;-71
2022/12/06 04:06:35;;;;;;;15.00;7.75;;;7.40;99.90;;;;;;5071592;28;20066;-71
2022/12/06 04:11:45;;;;;;;15.27;6.78;;;7.40;99.90;;;;;;5072847;28;20024;-71
2022/12/06 04:14:11;;;;;;;18.48;7.53;;;7.40;99.90;;;;;;5072684;28;20506;-71
2022/12/06 04:19:21;;;;;;;12.68;6.57;;;7.40;99.90;;;;;;5072520;28;20222;-71
2022/12/06 04:24:31;;;;;;;18.88;7.38;;;7.60;99.90;;;;;;5072131;28;20056;-71
2022/12/06 04:28:40;;;;;;;16.90;8.02;;;7.50;99.90;;;;;;5071461;28;20473;-71
2022/12/06 04:40:46;;;;;;;11.45;6.47;;;7.50;99.90;;;;;;5071347;28;20493;-71
2022/12/06 04:45:56;;;;;;;12.88;6.43;;;7.40;99.90;;;;;;5072013;28;20104;-71
2022/12/06 04:48:22;;;;;;;16.00;6.30;;;7.40;99.90;;;;;;5072232;28;20469;-71
2022/12/06 04:50:49;;;;;;;12.52;6.13;;;7.50;99.90;;;;;;5072841;28;20027;-71
2022/12/06 04:53:15;;;;;;;17.65;6.53;;;7.40;99.90;;;;;;5072122;28;20043;-71
2022/12/06 04:55:50;;;;;;;24.50;7.03;;;7.40;99.90;;;;;;5072096;28;20032;-75
2022/12/06 04:58:16;;;;;;;15.40;6.32;;;7.40;99.90;;;;;;5071088;28;20508;-74
2022/12/06 05:00:42;;;;;;;15.35;7.72;;;7.30;99.90;;;;;;5071152;28;20028;-75
2022/12/06 05:03:09;;;;;;;16.60;7.35;;;7.40;99.90;;;;;;5072158;28;20032;-74
2022/12/06 05:05:36;;;;;;;19.58;9.32;;;7.40;99.90;;;;;;5071796;28;20384;-75
2022/12/06 05:08:01;;;;;;;20.17;7.85;;;7.20;99.90;;;;;;5071178;28;20090;-74
2022/12/06 05:10:27;;;;;;;23.58;7.75;;;7.10;99.90;;;;;;5072134;28;20475;-75
2022/12/06 05:12:53;;;;;;;23.40;7.97;;;6.90;99.90;;;;;;5072335;28;20108;-74
2022/12/06 05:15:18;;;;;;;19.65;7.95;;;7.10;99.90;;;;;;5070251;28;20028;-74
2022/12/06 05:17:44;;;;;;;15.35;7.18;;;7.00;99.90;;;;;;5072104;28;20058;-75
2022/12/06 05:20:10;;;;;;;17.00;8.38;;;7.00;99.90;;;;;;5072229;28;20040;-74
2022/12/06 05:22:36;;;;;;;15.63;7.05;;;7.00;99.90;;;;;;5072198;28;20024;-75
2022/12/06 05:25:02;;;;;;;19.50;7.05;;;7.00;99.90;;;;;;5071914;28;20481;-74
2022/12/06 05:27:28;;;;;;;21.15;7.55;;;7.00;99.90;;;;;;5071930;28;20064;-75
2022/12/06 05:29:53;;;;;;;15.02;7.45;;;7.00;99.90;;;;;;5071724;28;20052;-74
2022/12/06 05:32:19;;;;;;;18.15;6.85;;;6.90;99.90;;;;;;5075125;28;20032;-74
2022/12/06 05:34:45;;;;;;;18.63;7.65;;;7.00;99.90;;;;;;5075360;28;20021;-75
2022/12/06 05:37:11;;;;;;;24.27;6.97;;;7.10;99.90;;;;;;5075569;28;20115;-74
2022/12/06 05:39:37;;;;;;;24.25;7.80;;;7.10;99.90;;;;;;5075270;28;20115;-74
2022/12/06 05:42:02;;;;;;;16.33;6.88;;;7.30;99.90;;;;;;5075746;28;20028;-75
2022/12/06 05:44:28;;;;;;;15.35;7.18;;;7.20;99.90;;;;;;5075158;28;20090;-75
2022/12/06 05:46:54;;;;;;;22.48;7.80;;;7.10;99.90;;;;;;5075240;28;20466;-75
2022/12/06 05:49:19;;;;;;;19.83;7.80;;;7.10;99.90;;;;;;5075489;28;20044;-75
2022/12/06 05:51:45;;;;;;;14.98;6.90;;;7.00;99.90;;;;;;5075219;28;20020;-74
2022/12/06 05:54:11;;;;;;;18.55;6.13;;;6.90;99.90;;;;;;5073895;28;20483;-74
2022/12/06 05:56:38;;;;;;;15.05;6.22;;;6.90;99.90;;;;;;5075105;28;20028;-74
2022/12/06 05:59:04;;;;;;;22.33;7.40;;;6.70;99.90;;;;;;5075114;28;20025;-74
2022/12/06 06:01:31;;;;;;;14.48;6.90;;;6.20;99.90;;;;;;5075250;28;20029;-74
2022/12/06 06:03:56;;;;;;;17.20;6.72;;;6.10;99.90;;;;;;5075394;28;20024;-71
2022/12/06 06:06:22;;;;;;;19.85;6.70;;;6.20;99.90;;;;;;5074966;28;20430;-71
2022/12/06 06:08:48;;;;;;;22.00;7.03;;;6.20;99.90;;;;;;5056753;28;20118;-71
2022/12/06 06:11:14;;;;;;;16.00;7.10;;;6.20;99.90;;;;;;5073568;28;20025;-72
2022/12/06 06:13:40;;;;;;;18.15;8.32;;;6.20;99.90;;;;;;5076530;28;20058;-71
2022/12/06 06:16:06;;;;;;;18.30;7.63;;;6.00;99.90;;;;;;5074706;28;20020;-72
2022/12/06 06:18:32;;;;;;;14.32;7.15;;;6.00;99.90;;;;;;5074696;28;20435;-71
2022/12/06 06:20:59;;;;;;;23.38;7.90;;;6.00;99.90;;;;;;5074833;28;20054;-71
2022/12/06 06:23:26;;;;;;;14.93;8.05;;;6.10;99.90;;;;;;5073590;28;20032;-72
2022/12/06 06:25:53;;;;;;;16.38;8.27;;;6.20;99.90;;;;;;5074254;28;20427;-71
2022/12/06 06:28:19;;;;;;;21.80;7.85;;;6.20;99.90;;;;;;5074584;28;20044;-71
2022/12/06 06:30:45;;;;;;;21.13;7.80;;;6.20;99.90;;;;;;5074465;28;20025;-72
2022/12/06 06:33:12;;;;;;;15.13;7.10;;;6.20;99.90;;;;;;5073346;28;20060;-71
2022/12/06 06:35:38;;;;;;;18.50;7.05;;;6.20;99.90;;;;;;5074151;28;20056;-72
2022/12/06 06:38:04;;;;;;;19.20;7.63;;;6.30;99.90;;;;;;5074387;28;20033;-72
2022/12/06 06:40:30;;;;;;;18.92;7.78;;;6.50;99.90;;;;;;5073897;28;20063;-71
2022/12/06 06:42:56;;;;;;;14.10;6.95;;;6.40;99.90;;;;;;5073232;28;20048;-71
2022/12/06 06:45:23;;;;;;;20.95;8.30;;;6.40;99.90;;;;;;5074180;28;20025;-71
2022/12/06 06:47:49;;;;;;;19.88;7.55;;;6.30;99.90;;;;;;5074126;28;20077;-71
2022/12/06 06:50:16;;;;;;;15.80;6.82;;;6.10;99.90;;;;;;5074090;28;20052;-71
2022/12/06 06:52:41;;;;;;;14.55;6.30;;;6.00;99.90;;;;;;5072929;28;20376;-71
2022/12/06 06:55:08;;;;;;;17.20;7.07;;;5.60;99.90;;;;;;5060589;28;20024;-71
2022/12/06 06:57:35;;;;;;;21.25;7.55;;;5.50;99.90;;;;;;5069508;28;20541;-71
2022/12/06 07:00:01;;;;;;;15.30;7.50;;;5.80;99.90;;;;;;5071935;28;20488;-71
2022/12/06 07:02:26;;;;;;;22.50;8.05;;;6.00;99.90;;;;;;5072972;28;20028;-71
2022/12/06 07:04:52;;;;;;;20.35;9.43;;;6.00;99.90;;;;;;5073036;28;20029;-71
2022/12/06 07:07:18;;;;;;;19.20;9.30;;;6.20;99.90;;;;;;5071153;28;20032;-72
2022/12/06 07:09:44;;;;;;;17.40;9.35;;;6.20;99.90;;;;;;5072804;28;20508;-71
2022/12/06 07:12:09;;;;;;;19.00;9.18;;;6.40;99.90;;;;;;5073003;28;20028;-71
2022/12/06 07:14:35;;;;;;;27.02;9.15;;;6.60;99.90;;;;;;5062469;28;20028;-72
2022/12/06 07:17:01;;;;;;;15.95;9.35;;;6.20;99.90;;;;;;5072513;28;20032;-74
2022/12/06 07:19:27;;;;;;;18.63;9.55;;;6.20;99.90;;;;;;5072526;28;20031;-73
2022/12/06 07:21:52;;;;;;;21.95;9.18;;;6.50;99.90;;;;;;5072452;28;20024;-74
2022/12/06 07:24:18;;;;;;;19.90;7.90;;;6.60;99.90;;;;;;5067584;28;20021;-74
2022/12/06 07:26:44;;;;;;;17.98;7.90;;;6.80;99.90;;;;;;5072553;28;20201;-74
2022/12/06 07:29:10;;;;;;;20.10;8.30;;;6.80;99.90;;;;;;5072648;28;20480;-73
2022/12/06 07:31:35;;;;;;;24.58;8.73;;;6.60;99.90;;;;;;5071517;28;20031;-74
2022/12/06 07:34:02;;;;;;;27.42;8.50;;;6.70;99.90;;;;;;5071190;28;20040;-74
2022/12/06 07:36:29;;;;;;;25.20;8.23;;;6.70;99.90;;;;;;5070645;28;20043;-73
2022/12/06 07:38:57;;;;;;;21.10;9.10;;;6.80;99.90;;;;;;5050135;28;20130;-74
2022/12/06 07:47:02;;;;;;;21.55;8.02;;;6.70;99.90;;;;;;5060251;28;20107;-74
2022/12/06 07:49:28;;;;;;;23.50;8.73;;;6.80;99.90;;;;;;5071865;28;20163;-75
2022/12/06 07:51:54;;;;;;;25.23;9.65;;;6.60;99.90;;;;;;5071981;28;20143;-74
2022/12/06 07:54:20;;;;;;;21.20;9.75;;;6.70;99.90;;;;;;5069253;28;20082;-74
2022/12/06 07:56:46;;;;;;;22.60;9.88;;;6.60;99.90;;;;;;5065838;28;20100;-75
2022/12/06 07:59:12;;;;;;;23.65;9.60;;;6.60;99.90;;;;;;5072113;28;20482;-76
2022/12/06 08:01:38;;;;;;;25.20;9.63;;;6.50;99.90;;;;;;5071863;28;20054;-76
2022/12/06 08:04:04;;;;;;;22.17;8.60;;;6.60;99.90;;;;;;5070582;28;20506;-77
2022/12/06 08:06:32;;;;;;;16.73;8.40;;;6.70;99.90;;;;;;5070599;28;20028;-76
2022/12/06 08:08:58;;;;;;;20.48;8.10;;;6.60;99.90;;;;;;5071710;28;20376;-76
2022/12/06 08:11:24;;;;;;;17.08;8.63;;;6.60;99.90;;;;;;5071978;28;20028;-75
2022/12/06 08:13:50;;;;;;;21.20;8.35;;;6.70;99.90;;;;;;5070914;28;20031;-76
2022/12/06 08:16:16;;;;;;;15.30;8.55;;;6.80;99.90;;;;;;5070119;28;20035;-76
2022/12/06 08:18:43;;;;;;;16.45;7.70;;;6.80;99.90;;;;;;5072497;28;20028;-76
2022/12/06 08:21:09;;;;;;;16.05;6.97;;;6.50;99.90;;;;;;5070017;28;20037;-76
2022/12/06 08:23:35;;;;;;;17.48;7.07;;;6.90;99.90;;;;;;5070582;28;20040;-76
2022/12/06 08:26:07;;;;;;;18.70;7.18;;;7.10;99.90;;;;;;5071389;28;20474;-75
2022/12/06 08:28:33;;;;;;;;;;;7.40;99.90;;;;;;5072906;28;20120;-74
2022/12/06 08:31:03;;;;;;;13.40;5.25;;;7.40;99.90;;;;;;5072195;28;19916;-75
2022/12/06 08:33:32;;;;;;;12.20;5.88;;;7.50;99.90;;;;;;5072391;28;20024;-76
2022/12/06 08:35:57;;;;;;;18.67;7.15;;;7.50;99.90;;;;;;5072491;28;20032;-76
2022/12/06 08:38:23;;;;;;;16.48;7.20;;;7.60;99.90;;;;;;5072141;28;20028;-75
2022/12/06 08:40:49;;;;;;;18.38;8.30;;;7.60;99.90;;;;;;5051232;28;20020;-73
2022/12/06 08:43:15;;;;;;;21.08;7.95;;;7.50;99.90;;;;;;5071447;28;20032;-77
2022/12/06 08:45:40;;;;;;;27.63;9.13;;;7.10;99.90;;;;;;5066657;28;20039;-72
2022/12/06 08:48:06;;;;;;;20.73;10.23;;;7.10;99.90;;;;;;5067100;28;20033;-72
2022/12/06 08:50:32;;;;;;;30.50;9.40;;;7.50;99.90;;;;;;5070311;28;20024;-71
2022/12/06 08:52:58;;;;;;;18.23;8.90;;;7.60;99.90;;;;;;5069857;28;20077;-71
2022/12/06 08:55:23;;;;;;;27.35;9.60;;;7.80;99.90;;;;;;5071303;28;20021;-71
2022/12/06 08:57:49;;;;;;;22.00;8.82;;;7.80;99.90;;;;;;5068260;28;20498;-71
2022/12/06 09:00:16;;;;;;;24.10;9.95;;;7.80;99.90;;;;;;5068807;28;20045;-71
2022/12/06 09:02:41;;;;;;;21.35;10.55;;;7.80;99.90;;;;;;5069156;28;20476;-71
2022/12/06 09:05:08;;;;;;;27.77;10.75;;;7.90;99.90;;;;;;5071138;28;20036;-71
2022/12/06 09:07:34;;;;;;;21.85;10.23;;;7.70;99.90;;;;;;5073562;28;20040;-70
2022/12/06 09:09:59;;;;;;;27.40;14.05;;;7.90;99.90;;;;;;5074880;28;20023;-70
2022/12/06 09:12:26;;;;;;;17.88;9.30;;;7.70;99.90;;;;;;5066914;28;20356;-70
2022/12/06 09:14:51;;;;;;;29.48;9.18;;;7.70;99.90;;;;;;5074765;28;20107;-70
2022/12/06 09:17:17;;;;;;;20.15;9.18;;;7.80;99.90;;;;;;5075333;28;20421;-70
2022/12/06 09:19:43;;;;;;;23.02;8.68;;;7.70;99.90;;;;;;5074738;28;20029;-70
2022/12/06 09:22:09;;;;;;;22.92;7.82;;;7.60;99.90;;;;;;5073616;28;20024;-72
2022/12/06 09:24:34;;;;;;;13.38;5.53;;;7.80;99.90;;;;;;5074022;28;20027;-74
2022/12/06 09:27:00;;;;;;;13.07;6.38;;;8.00;99.90;;;;;;5074550;28;20036;-73
2022/12/06 09:29:26;;;;;;;14.13;4.93;;;8.20;99.90;;;;;;5074720;28;20035;-74
2022/12/06 09:31:52;;;;;;;13.23;5.35;;;8.70;99.90;;;;;;5074588;28;20028;-74
2022/12/06 09:34:18;;;;;;;9.75;4.72;;;8.80;99.90;;;;;;5074240;28;20042;-73
2022/12/06 09:36:46;;;;;;;15.00;4.28;;;9.00;99.90;;;;;;5074673;28;20024;-75
2022/12/06 09:39:20;;;;;;;9.95;5.10;;;8.80;99.90;;;;;;5067499;28;20499;-70
2022/12/06 09:42:14;;;;;;;14.90;6.15;;;9.80;99.90;;;;;;5073822;28;20017;-70
2022/12/06 09:44:49;;;;;;;24.70;6.00;;;10.60;99.90;;;;;;5070107;28;20032;-71
2022/12/06 09:47:32;;;;;;;10.48;5.18;;;11.10;99.90;;;;;;5072891;28;20029;-70
2022/12/06 09:50:20;;;;;;;11.50;3.80;;;11.90;99.90;;;;;;5070064;28;20041;-70
2022/12/06 09:53:10;;;;;;;9.32;4.43;;;11.70;99.90;;;;;;5072629;28;20028;-74
2022/12/06 09:55:48;;;;;;;10.10;4.15;;;12.10;99.90;;;;;;5072806;28;20436;-74
2022/12/06 09:58:45;;;;;;;11.05;4.15;;;12.30;99.90;;;;;;5074232;28;20027;-74
2022/12/06 10:01:49;;;;;;;10.05;4.30;;;13.00;99.90;;;;;;5082416;28;20037;-74
2022/12/06 10:04:41;;;;;;;10.18;3.92;;;13.60;99.90;;;;;;5080463;28;20040;-74
2022/12/06 10:07:31;;;;;;;6.50;3.55;;;13.70;99.90;;;;;;5079223;28;20071;-74
2022/12/06 10:10:12;;;;;;;8.93;3.35;;;14.00;99.90;;;;;;5063179;28;20039;-74
2022/12/06 10:12:54;;;;;;;9.55;3.67;;;13.20;99.90;;;;;;5075635;28;20032;-74
2022/12/06 10:15:33;;;;;;;;;;;12.20;99.90;;;;;;5075889;28;20031;-74
2022/12/06 10:18:14;;;;;;;15.05;3.88;;;12.60;99.90;;;;;;5082061;28;19912;-74
2022/12/06 10:20:39;;;;;;;10.73;3.65;;;11.30;99.90;;;;;;5084896;28;20079;-74
2022/12/06 10:23:21;;;;;;;10.20;3.92;;;11.40;99.90;;;;;;5086954;28;20028;-73
2022/12/06 10:26:04;;;;;;;10.20;4.03;;;11.80;99.90;;;;;;5086711;28;20033;-74
2022/12/06 10:28:52;;;;;;;9.15;3.75;;;11.90;99.90;;;;;;5085878;28;20032;-73
2022/12/06 10:31:21;;;;;;;4.70;2.67;;;11.90;99.90;;;;;;5080471;28;20025;-73
2022/12/06 10:33:55;;;;;;;5.35;3.13;;;10.70;99.90;;;;;;5074408;28;20028;-74
2022/12/06 10:36:45;;;;;;;7.80;3.72;;;9.90;99.90;;;;;;5065505;28;20044;-75
2022/12/06 10:39:21;;;;;;;9.23;3.08;;;9.80;99.90;;;;;;5068552;28;20480;-75
2022/12/06 10:42:02;;;;;;;7.95;3.50;;;9.80;99.90;;;;;;5076782;28;20033;-75
2022/12/06 10:44:36;;;;;;;8.85;3.03;;;9.80;99.90;;;;;;5087304;28;20020;-75
2022/12/06 10:47:09;;;;;;;11.85;3.85;;;9.90;99.90;;;;;;5093957;28;20036;-73
2022/12/06 10:49:51;;;;;;;9.95;3.13;;;10.30;99.90;;;;;;5082007;28;20032;-74
2022/12/06 10:52:51;;;;;;;6.13;2.90;;;10.40;99.90;;;;;;5067964;28;20388;-75
2022/12/06 10:55:30;;;;;;;5.68;3.05;;;10.90;99.90;;;;;;5065390;28;20401;-75
2022/12/06 10:58:05;;;;;;;6.35;2.92;;;10.80;99.90;;;;;;5073267;28;20020;-75
2022/12/06 11:00:38;;;;;;;6.65;2.65;;;12.10;99.90;;;;;;5073033;28;20090;-74
2022/12/06 11:03:30;;;;;;;9.65;2.78;;;12.60;99.90;;;;;;5072841;28;20028;-75
2022/12/06 11:06:07;;;;;;;4.00;2.35;;;12.80;99.90;;;;;;5061690;28;20401;-76
2022/12/06 11:08:35;;;;;;;7.85;3.17;;;13.30;99.90;;;;;;5072808;28;20079;-76
2022/12/06 11:11:04;;;;;;;5.00;2.15;;;13.00;99.90;;;;;;5072597;28;20028;-75
2022/12/06 11:13:46;;;;;;;7.05;2.97;;;12.90;99.90;;;;;;5072221;28;20107;-75
2022/12/06 11:16:14;;;;;;;11.57;3.75;;;14.00;99.90;;;;;;5068441;28;20064;-75
2022/12/06 11:18:41;;;;;;;10.20;3.00;;;14.30;99.90;;;;;;5072527;28;20073;-76
2022/12/06 11:21:44;;;;;;;10.35;2.50;;;14.20;99.90;;;;;;5072615;28;20481;-76
2022/12/06 11:24:16;;;;;;;7.30;2.42;;;15.50;99.90;;;;;;5071152;28;20020;-76
2022/12/06 11:26:47;;;;;;;;;;;14.20;99.90;;;;;;5071760;28;20060;-74
2022/12/06 11:29:15;;;;;;;6.18;2.92;;;12.70;99.90;;;;;;5071552;28;19925;-76
2022/12/06 11:31:53;;;;;;;7.07;2.80;;;12.90;99.90;;;;;;5072188;28;20489;-74
2022/12/06 11:34:30;;;;;;;5.85;2.70;;;12.20;99.90;;;;;;5070133;28;20485;-74
2022/12/06 11:36:57;;;;;;;9.82;2.80;;;13.60;99.90;;;;;;5072109;28;20033;-75
2022/12/06 11:39:23;;;;;;;6.15;2.60;;;14.20;99.90;;;;;;5069346;28;20048;-75
2022/12/06 11:41:52;;;;;;;9.68;2.83;;;14.70;99.90;;;;;;5066735;28;20047;-75
2022/12/06 11:44:24;;;;;;;10.68;3.60;;;14.50;99.40;;;;;;5071816;28;20021;-73
2022/12/06 11:46:57;;;;;;;;;;;14.50;99.00;;;;;;5071839;28;20028;-74
2022/12/06 11:49:39;;;;;;;8.43;2.58;;;14.40;99.90;;;;;;5068237;28;19912;-72
2022/12/06 11:52:21;;;;;;;8.85;2.35;;;14.30;99.90;;;;;;5067282;28;20500;-71
2022/12/06 11:54:57;;;;;;;;;;;14.20;98.50;;;;;;5071966;28;20127;-71
2022/12/06 11:57:33;;;;;;;10.10;2.40;;;12.30;99.90;;;;;;5060893;28;19916;-72
2022/12/06 12:00:15;;;;;;;6.15;2.28;;;12.70;99.90;;;;;;5071260;28;20017;-71
2022/12/06 12:02:44;;;;;;;5.43;2.03;;;11.60;99.90;;;;;;5072146;28;20043;-74
2022/12/06 12:05:15;;;;;;;7.40;2.28;;;10.80;99.90;;;;;;5070363;28;20040;-71
2022/12/06 12:07:44;;;;;;;9.07;2.60;;;11.20;99.90;;;;;;5066922;28;20135;-72
2022/12/06 12:10:31;;;;;;;4.75;2.15;;;11.00;99.90;;;;;;5061657;28;20033;-71
2022/12/06 12:16:02;;;;;;;8.23;1.95;;;11.30;99.90;;;;;;5072330;28;20203;-72
2022/12/06 12:18:32;;;;;;;6.28;1.67;;;11.30;99.90;;;;;;5070975;28;20025;-71
2022/12/06 12:20:59;;;;;;;9.23;1.60;;;11.10;99.90;;;;;;5072582;28;20017;-70
2022/12/06 12:23:45;;;;;;;11.45;1.85;;;11.20;99.90;;;;;;5072409;28;20483;-75
2022/12/06 12:26:17;;;;;;;11.93;2.13;;;10.90;99.90;;;;;;5072665;28;20043;-76
2022/12/06 12:28:44;;;;;;;;;;;10.50;99.90;;;;;;5072847;28;20051;-75
2022/12/06 12:31:18;;;;;;;5.80;1.73;;;10.00;99.90;;;;;;5073068;28;19904;-75
2022/12/06 12:33:44;;;;;;;7.47;1.95;;;9.80;99.90;;;;;;5072119;28;20103;-75
2022/12/06 12:36:22;;;;;;;9.57;2.10;;;9.60;99.90;;;;;;5072412;28;20025;-75
2022/12/06 12:38:51;;;;;;;5.05;1.73;;;9.70;99.90;;;;;;5072476;28;20111;-76
2022/12/06 12:41:28;;;;;;;5.63;2.00;;;10.30;99.90;;;;;;5076005;28;20476;-75
2022/12/06 12:44:11;;;;;;;12.48;2.05;;;10.90;99.90;;;;;;5076362;28;20033;-75
2022/12/06 12:46:43;;;;;;;7.25;2.13;;;10.90;99.90;;;;;;5076384;28;20060;-76
2022/12/06 12:49:34;;;;;;;9.00;1.98;;;10.70;99.90;;;;;;5078329;28;20059;-77
2022/12/06 12:52:01;;;;;;;5.88;1.88;;;10.30;99.90;;;;;;5065531;28;20037;-75
2022/12/06 12:54:35;;;;;;;3.80;1.63;;;10.20;99.90;;;;;;5076411;28;20392;-75
2022/12/06 12:57:10;;;;;;;7.05;1.90;;;10.60;99.90;;;;;;5076353;28;20078;-75
2022/12/06 12:59:39;;;;;;;11.10;2.10;;;11.20;99.90;;;;;;5075961;28;20033;-75
2022/12/06 13:02:25;;;;;;;5.03;1.60;;;12.60;99.90;;;;;;5076240;28;20013;-75
2022/12/06 13:05:13;;;;;;;5.97;1.65;;;11.20;99.90;;;;;;5076219;28;20094;-75
2022/12/06 13:07:41;;;;;;;7.18;1.55;;;10.90;99.90;;;;;;5077051;28;20070;-75
2022/12/06 13:10:14;;;;;;;6.85;2.38;;;10.50;99.90;;;;;;5071067;28;20112;-76
2022/12/06 13:12:45;;;;;;;7.35;2.10;;;10.30;99.90;;;;;;5075791;28;20070;-75
2022/12/06 13:15:15;;;;;;;7.45;1.75;;;10.60;99.90;;;;;;5076177;28;20028;-75
2022/12/06 13:17:46;;;;;;;8.43;2.22;;;10.00;99.90;;;;;;5075076;28;20090;-75
2022/12/06 13:20:32;;;;;;;6.25;1.80;;;9.70;99.90;;;;;;5075953;28;20033;-73
2022/12/06 13:23:03;;;;;;;4.72;1.55;;;9.60;99.90;;;;;;5076131;28;20074;-76
2022/12/06 13:25:29;;;;;;;5.72;1.33;;;9.60;99.90;;;;;;5074522;28;20032;-76
2022/12/06 13:27:59;;;;;;;6.93;2.13;;;9.60;99.90;;;;;;5074195;28;20044;-74
2022/12/06 13:30:29;;;;;;;7.20;1.90;;;9.50;99.90;;;;;;5075605;28;20060;-74
2022/12/06 13:33:18;;;;;;;11.15;2.05;;;9.80;99.90;;;;;;5075671;28;20425;-76
2022/12/06 13:35:58;;;;;;;8.15;1.67;;;9.70;99.90;;;;;;5075457;28;20032;-76
2022/12/06 13:38:36;;;;;;;8.82;2.05;;;9.30;99.90;;;;;;5075748;28;20028;-75